^^
LKKV - Karlovy Vary, Czech Republic
Entfernung von Station: O 36km
Aktualisierung: 12.12.2019 20:00
Bedeckt
Bedeckt
 Wind von SO
Wind: SO 6 km/h
Temperatur: 0°C
Taupunkt: -1°C
Luftfeuchte: 93%
Luftdruck: 999 hPa
Wolken: Bedeckt
Sicht: 10 km
Wolken Details: Bedeckt 244 m
2019/12/12 19:00 LKKV 121900Z 13003KT 100V210 9999 OVC008 00/M01 Q0999 R29///////
EDQM - Hof, Germany
Entfernung von Station: W 40km
Aktualisierung: 12.12.2019 19:50
Nebel, Bedeckt
Nebel, Bedeckt
 Wind von SSW
Wind: SSW 15 km/h
Temperatur: 0°C
Windkühle: -4°C
Taupunkt: 0°C
Luftfeuchte: 100%
Luftdruck: 998 hPa
Zusammenfassung: Nebel
Wolken: Bedeckt
Sicht: 2 km
Wolken Details: Bedeckt 91 m
2019/12/12 18:50 EDQM 121850Z 20008KT 2400 BR OVC003 00/00 Q0998
 
ETIC - Grafenwoehr, Germany
Entfernung von Station: SSW 72km
Aktualisierung: 12.12.2019 19:56
Bedeckt
Bedeckt
 Wind von calm
Wind: Windstill
Temperatur: 1°C
Taupunkt: 1°C
Luftfeuchte: 100%
Luftdruck: 999.3 hPa
Wolken: Bedeckt
Sicht: 10 km
Wolken Details: wolkig 488 m
Bedeckt 762 m
2019/12/12 18:56 ETIC 121856Z AUTO 00000KT 9999 SCT016 OVC025 01/01 A2951 RMK AO2 SLP014 T00140014 $
EDAC - Altenburg-Nobitz, Germany
Entfernung von Station: N 80km
Aktualisierung: 12.12.2019 19:50
stark bewölkt
stark bewölkt
 Wind von S
Wind: S 6 km/h
Temperatur: 2°C
Taupunkt: 0°C
Luftfeuchte: 87%
Luftdruck: 999 hPa
Wolken: stark bewölkt
Sicht: 10 km
Wolken Details: stark bewölkt 762 m
stark bewölkt 2408 m
2019/12/12 18:50 EDAC 121850Z AUTO 17003KT 9999 // BKN025/// BKN079/// 02/M00 Q0999
 
LKLN - Plzen Line, Czech Republic
Entfernung von Station: SO 88km
Aktualisierung: 12.12.2019 20:00
Bedeckt
Bedeckt
 Wind von SSW
Wind: SSW 6 km/h
Temperatur: 0°C
Taupunkt: 0°C
Luftfeuchte: 100%
Luftdruck: 1001 hPa
Wolken: Bedeckt
Sicht: 10 km
Wolken Details: stark bewölkt 671 m
Bedeckt 762 m
2019/12/12 19:00 LKLN 121900Z AUTO 20003KT 9999 BKN022 OVC025 00/M00 Q1001
ETIH - Hohenfels (usa-A, Germany
Entfernung von Station: SSW 124km
Aktualisierung: 12.12.2019 20:01
Nebel, Bedeckt
Nebel, Bedeckt
 Wind von calm
Wind: Windstill
Temperatur: 1°C
Taupunkt: 0°C
Luftfeuchte: 93%
Luftdruck: 1000.3 hPa
Zusammenfassung: Nebel
Wolken: Bedeckt
Sicht: 2 km
Wolken Details: Bedeckt 183 m
2019/12/12 19:01 ETIH 121901Z AUTO 00000KT 2000 BR OVC006 01/00 A2954 RMK AO2 VIS 2000V4000 SLP025 $
 
EDDE - Erfurt/Bindersleben, Germany
Entfernung von Station: NW 129km
Aktualisierung: 12.12.2019 19:50
wolkig
wolkig
 Wind von S
Wind: S 13 km/h
Temperatur: 1°C
Windkühle: -3°C
Taupunkt: -1°C
Luftfeuchte: 87%
Luftdruck: 998 hPa
Wolken: wolkig
Sicht: 10 km
Wolken Details: wolkig 792 m
2019/12/12 18:50 EDDE 121850Z 17007KT 9999 SCT026 01/M01 Q0998 NOSIG
EDDP - Leipzig/Schkeudidtz, Germany
Entfernung von Station: N 129km
Aktualisierung: 12.12.2019 19:50
stark bewölkt
stark bewölkt
 Wind von S
Wind: S 17 km/h
Temperatur: 4°C
Windkühle: 0°C
Taupunkt: 1°C
Luftfeuchte: 81%
Luftdruck: 999 hPa
Wolken: stark bewölkt
Sicht: 10 km
Wolken Details: stark bewölkt 792 m
2019/12/12 18:50 EDDP 121850Z 17009KT 9999 BKN026 04/01 Q0999 NOSIG
 
EDDN - Nuernberg, Germany
Entfernung von Station: SW 130km
Aktualisierung: 12.12.2019 19:50
teils wolkig
teils wolkig
 Wind von SSO
Wind: SSO 9 km/h
Temperatur: 2°C
Windkühle: -1°C
Taupunkt: 0°C
Luftfeuchte: 87%
Luftdruck: 1000 hPa
Wolken: teils wolkig
Sicht: 10 km
Wolken Details: teils wolkig 244 m
2019/12/12 18:50 EDDN 121850Z 16005KT 9999 FEW008 02/00 Q1000 R28/29//95 NOSIG
LKPR - Prague/Ruzyne, Czech Republic
Entfernung von Station: O 133km
Aktualisierung: 12.12.2019 20:00
teils wolkig
teils wolkig
 Wind von SO
Wind: SO 13 km/h
Temperatur: 0°C
Windkühle: -4°C
Taupunkt: -1°C
Luftfeuchte: 93%
Luftdruck: 1001 hPa
Wolken: teils wolkig
Sicht: 9 km
Wolken Details: teils wolkig 1219 m
2019/12/12 19:00 LKPR 121900Z 14007KT 9000 FEW040 00/M01 Q1001 NOSIG
 
EDDC - Dresden/Klotzsche, Germany
Entfernung von Station: NO 134km
Aktualisierung: 12.12.2019 19:50
Klar
Klar
 Wind von SSO
Wind: SSO 22 km/h
Temperatur: 1°C
Windkühle: -4°C
Taupunkt: -1°C
Luftfeuchte: 87%
Luftdruck: 1000 hPa
Zusammenfassung: Klar
Sicht: mehr als 10 km
2019/12/12 18:50 EDDC 121850Z 16012KT CAVOK 01/M01 Q1000 NOSIG
Besucherstatistik
Besucher gesamt: 2.490.727
Besucher heute: 1.630
Besucher gestern: 1.899
gerade online: 19
Seitenaufrufe diese Seite: 4.787
counter Statistiken